Time;durP1;ratioP1;P1;durP2;ratioP2;P2;SDS_P1;SDS_P2;PMS_P1;PMS_P2;Temp;Humidity;BMP_temperature;BMP_pressure;BME280_temperature;BME280_humidity;BME280_pressure;Samples;Min_cycle;Max_cycle;Signal;HPM_P1;HPM_P2
2021/08/09 07:38:05;;;;;;;7.20;4.38;;;;;;;;;;4868046;24;20309;-72
2021/08/09 07:40:31;;;;;;;15.82;4.90;;;;;;;;;;4838605;29;20041;-72
2021/08/09 07:42:56;;;;;;;9.85;5.97;;;;;;;;;;4838112;29;20029;-71
2021/08/09 07:45:22;;;;;;;7.13;4.00;;;;;;;;;;4835675;29;20061;-74
2021/08/09 07:47:52;;;;;;;25.45;6.10;;;;;;;;;;4817275;29;20050;-73
2021/08/09 07:50:19;;;;;;;7.80;4.30;;;;;;;;;;4828821;29;20125;-72
2021/08/09 07:52:45;;;;;;;8.00;4.28;;;;;;;;;;4831292;29;20046;-73
2021/08/09 07:55:11;;;;;;;10.57;4.43;;;;;;;;;;4830232;29;20036;-74
2021/08/09 07:57:36;;;;;;;11.90;4.47;;;;;;;;;;4842555;29;20045;-73
2021/08/09 08:00:03;;;;;;;6.00;3.83;;;;;;;;;;4831806;29;20124;-74
2021/08/09 08:02:29;;;;;;;8.90;4.28;;;;;;;;;;4828660;29;20075;-74
2021/08/09 08:04:54;;;;;;;12.25;5.05;;;;;;;;;;4830689;29;20029;-72
2021/08/09 08:07:20;;;;;;;7.75;3.47;;;;;;;;;;4829876;29;20106;-73
2021/08/09 08:09:48;;;;;;;10.25;4.07;;;;;;;;;;4830046;29;20422;-72
2021/08/09 08:12:14;;;;;;;8.60;3.72;;;;;;;;;;4831363;29;20383;-74
2021/08/09 08:14:39;;;;;;;6.90;2.78;;;;;;;;;;4832728;29;20045;-72
2021/08/09 08:17:05;;;;;;;12.18;2.72;;;;;;;;;;4847265;29;20037;-72
2021/08/09 08:19:30;;;;;;;6.00;3.22;;;;;;;;;;4832730;29;21493;-72
2021/08/09 08:21:56;;;;;;;9.73;3.30;;;;;;;;;;4825074;29;20697;-74
2021/08/09 08:24:21;;;;;;;12.10;3.70;;;;;;;;;;4831875;29;20026;-73
2021/08/09 08:26:47;;;;;;;6.43;3.30;;;;;;;;;;4831366;29;20037;-74
2021/08/09 08:29:13;;;;;;;10.25;3.10;;;;;;;;;;4833055;29;20038;-73
2021/08/09 08:31:38;;;;;;;5.35;2.92;;;;;;;;;;4830624;29;20037;-72
2021/08/09 08:34:04;;;;;;;13.77;4.15;;;;;;;;;;4831120;29;20037;-72
2021/08/09 08:36:29;;;;;;;15.15;4.90;;;;;;;;;;4829706;29;20062;-73
2021/08/09 08:38:56;;;;;;;4.25;2.97;;;;;;;;;;4827629;29;20038;-74
2021/08/09 08:41:21;;;;;;;6.57;2.83;;;;;;;;;;4829160;29;20150;-74
2021/08/09 08:43:47;;;;;;;9.63;3.63;;;;;;;;;;4826626;29;20430;-74
2021/08/09 08:46:13;;;;;;;8.52;3.80;;;;;;;;;;4831549;29;20061;-74
2021/08/09 08:48:38;;;;;;;4.82;3.47;;;;;;;;;;4831604;29;20742;-73
2021/08/09 08:51:05;;;;;;;10.38;4.63;;;;;;;;;;4830648;29;20062;-74
2021/08/09 08:53:35;;;;;;;8.45;4.03;;;;;;;;;;4828771;29;20091;-73
2021/08/09 08:56:08;;;;;;;6.07;2.85;;;;;;;;;;4830775;29;20038;-72
2021/08/09 08:58:35;;;;;;;6.57;3.20;;;;;;;;;;4830677;29;20030;-73
2021/08/09 09:01:00;;;;;;;7.15;2.60;;;;;;;;;;4844735;29;20733;-75
2021/08/09 09:03:27;;;;;;;9.70;3.92;;;;;;;;;;4836993;29;20042;-75
2021/08/09 09:05:57;;;;;;;5.72;3.13;;;;;;;;;;4834650;29;20033;-74
2021/08/09 09:08:44;;;;;;;6.85;2.55;;;;;;;;;;4836765;29;20045;-73
2021/08/09 09:11:22;;;;;;;7.03;2.80;;;;;;;;;;4839695;29;20090;-75
2021/08/09 09:13:54;;;;;;;4.20;2.30;;;;;;;;;;4837083;29;20033;-72
2021/08/09 09:16:20;;;;;;;18.50;3.70;;;;;;;;;;4834464;29;20124;-74
2021/08/09 09:18:48;;;;;;;6.82;3.08;;;;;;;;;;4848959;29;20534;-74
2021/08/09 09:21:28;;;;;;;6.13;2.55;;;;;;;;;;4833372;29;20041;-73
2021/08/09 09:24:05;;;;;;;2.73;2.37;;;;;;;;;;4829846;29;20114;-70
2021/08/09 09:26:31;;;;;;;6.05;2.08;;;;;;;;;;4831066;29;20061;-73
2021/08/09 09:29:06;;;;;;;7.07;2.42;;;;;;;;;;4834655;29;20727;-72
2021/08/09 09:31:31;;;;;;;3.38;2.72;;;;;;;;;;4830505;29;20414;-73
2021/08/09 09:34:02;;;;;;;7.05;3.17;;;;;;;;;;4829573;29;20042;-72
2021/08/09 09:36:51;;;;;;;4.28;2.72;;;;;;;;;;4833685;29;20088;-72
2021/08/09 09:39:41;;;;;;;8.75;3.20;;;;;;;;;;4830379;29;20046;-74
2021/08/09 09:42:12;;;;;;;17.10;6.88;;;;;;;;;;4839482;29;20411;-73
2021/08/09 09:44:40;;;;;;;3.65;2.42;;;;;;;;;;4838374;29;20065;-73
2021/08/09 09:47:26;;;;;;;8.40;2.75;;;;;;;;;;4835581;29;20033;-74
2021/08/09 09:50:01;;;;;;;10.40;2.83;;;;;;;;;;4833969;29;20029;-74
2021/08/09 09:52:45;;;;;;;3.97;2.13;;;;;;;;;;4830988;29;20453;-73
2021/08/09 09:55:13;;;;;;;5.15;3.15;;;;;;;;;;4830881;29;20042;-75
2021/08/09 09:57:40;;;;;;;8.27;2.90;;;;;;;;;;4831170;29;20037;-74
2021/08/09 10:00:12;;;;;;;8.90;2.53;;;;;;;;;;4833149;29;20367;-73
2021/08/09 10:02:42;;;;;;;7.35;2.65;;;;;;;;;;4828942;29;20598;-74
2021/08/09 10:05:09;;;;;;;8.60;2.53;;;;;;;;;;4832873;29;20125;-74
2021/08/09 10:07:36;;;;;;;5.82;3.08;;;;;;;;;;4833566;29;20415;-72
2021/08/09 10:10:05;;;;;;;3.85;2.10;;;;;;;;;;4830183;29;20029;-74
2021/08/09 10:12:32;;;;;;;9.77;3.90;;;;;;;;;;4829483;29;20062;-73
2021/08/09 10:14:59;;;;;;;4.93;2.22;;;;;;;;;;4831604;29;20631;-72
2021/08/09 10:17:27;;;;;;;6.80;2.90;;;;;;;;;;4833878;29;20073;-73
2021/08/09 10:19:58;;;;;;;9.52;3.05;;;;;;;;;;4831940;29;20656;-74
2021/08/09 10:22:25;;;;;;;5.82;2.45;;;;;;;;;;4831279;29;20130;-74
2021/08/09 10:24:52;;;;;;;16.30;4.72;;;;;;;;;;4832590;29;20159;-73
2021/08/09 10:27:46;;;;;;;6.70;3.33;;;;;;;;;;4835339;29;20042;-72
2021/08/09 10:30:20;;;;;;;10.73;3.22;;;;;;;;;;4833486;29;20042;-73
2021/08/09 10:32:50;;;;;;;3.70;2.45;;;;;;;;;;4829294;29;20074;-74
2021/08/09 10:35:40;;;;;;;7.72;2.58;;;;;;;;;;4832548;29;20026;-74
2021/08/09 10:38:17;;;;;;;4.78;2.80;;;;;;;;;;4830354;29;20057;-75
2021/08/09 10:40:45;;;;;;;5.13;2.17;;;;;;;;;;4832483;29;20030;-76
2021/08/09 10:43:12;;;;;;;7.13;2.70;;;;;;;;;;4828234;29;20098;-72
2021/08/09 10:45:46;;;;;;;8.38;2.63;;;;;;;;;;4832681;29;20133;-73
2021/08/09 10:48:13;;;;;;;3.85;2.33;;;;;;;;;;4833095;29;20125;-73
2021/08/09 10:50:41;;;;;;;6.25;2.40;;;;;;;;;;4851785;29;20037;-72
2021/08/09 10:53:25;;;;;;;7.60;2.38;;;;;;;;;;4833672;29;20033;-72
2021/08/09 10:55:55;;;;;;;2.97;2.03;;;;;;;;;;4835240;29;20094;-73
2021/08/09 10:58:42;;;;;;;4.90;2.67;;;;;;;;;;4833395;29;20040;-74
2021/08/09 11:01:09;;;;;;;5.65;3.00;;;;;;;;;;4839706;29;20512;-72
2021/08/09 11:04:03;;;;;;;5.25;2.53;;;;;;;;;;4826868;29;20042;-73
2021/08/09 11:06:54;;;;;;;7.72;2.55;;;;;;;;;;4828412;29;20386;-74
2021/08/09 11:09:32;;;;;;;5.53;2.08;;;;;;;;;;4830948;29;20030;-73
2021/08/09 11:12:25;;;;;;;5.55;2.80;;;;;;;;;;4827194;29;20062;-74
2021/08/09 11:15:00;;;;;;;8.02;3.33;;;;;;;;;;4829764;29;20033;-74
2021/08/09 11:17:31;;;;;;;8.05;3.88;;;;;;;;;;4845133;29;20124;-74
2021/08/09 11:20:22;;;;;;;5.93;2.57;;;;;;;;;;4826908;29;20041;-73
2021/08/09 11:22:57;;;;;;;8.02;2.30;;;;;;;;;;4827551;29;21997;-73
2021/08/09 11:25:28;;;;;;;16.48;3.00;;;;;;;;;;4845435;29;20487;-73
2021/08/09 11:28:05;;;;;;;6.63;2.30;;;;;;;;;;4829139;29;20848;-73
2021/08/09 11:30:37;;;;;;;9.13;3.30;;;;;;;;;;4831466;29;20038;-72
2021/08/09 11:33:04;;;;;;;4.35;2.40;;;;;;;;;;4822724;29;20110;-72
2021/08/09 11:35:44;;;;;;;6.10;2.80;;;;;;;;;;4828770;29;20085;-73
2021/08/09 11:38:09;;;;;;;3.13;2.40;;;;;;;;;;4832189;29;20057;-73
2021/08/09 11:40:44;;;;;;;5.18;2.60;;;;;;;;;;4831526;29;20523;-72
2021/08/09 11:43:12;;;;;;;6.78;2.50;;;;;;;;;;4826073;29;20038;-73
2021/08/09 11:45:38;;;;;;;12.73;4.15;;;;;;;;;;4829245;29;20038;-72
2021/08/09 11:48:07;;;;;;;7.85;2.72;;;;;;;;;;4827919;29;20475;-75
2021/08/09 11:50:39;;;;;;;8.07;2.75;;;;;;;;;;4827655;29;20037;-73
2021/08/09 11:53:06;;;;;;;6.18;2.33;;;;;;;;;;4824121;29;20036;-72
2021/08/09 11:55:32;;;;;;;6.90;1.85;;;;;;;;;;4827989;29;20095;-73
2021/08/09 11:57:58;;;;;;;5.25;2.30;;;;;;;;;;4827228;29;20583;-73
2021/08/09 12:00:35;;;;;;;6.13;3.40;;;;;;;;;;4826524;29;20113;-73
2021/08/09 12:03:08;;;;;;;8.55;2.63;;;;;;;;;;4826191;29;20042;-73
2021/08/09 12:05:35;;;;;;;24.38;2.75;;;;;;;;;;4826890;29;20498;-74
2021/08/09 12:08:10;;;;;;;3.53;2.65;;;;;;;;;;4828223;29;20038;-73
2021/08/09 12:10:37;;;;;;;4.82;2.47;;;;;;;;;;4826166;29;20030;-72
2021/08/09 12:13:21;;;;;;;9.27;3.17;;;;;;;;;;4825705;29;20037;-73
2021/08/09 12:16:05;;;;;;;8.27;2.58;;;;;;;;;;4826217;29;20121;-74
2021/08/09 12:18:31;;;;;;;11.75;3.10;;;;;;;;;;4827835;29;20120;-73
2021/08/09 12:21:12;;;;;;;7.07;2.30;;;;;;;;;;4830800;29;20044;-71
2021/08/09 12:23:53;;;;;;;5.07;2.50;;;;;;;;;;4825617;29;20054;-72
2021/08/09 12:26:21;;;;;;;3.33;1.90;;;;;;;;;;4827423;29;20129;-74
2021/08/09 12:28:56;;;;;;;2.13;1.88;;;;;;;;;;4827000;29;20037;-74
2021/08/09 12:31:48;;;;;;;5.22;2.50;;;;;;;;;;4831094;29;20022;-72
2021/08/09 12:34:17;;;;;;;2.67;1.90;;;;;;;;;;4832470;29;20053;-74
2021/08/09 12:36:44;;;;;;;5.50;2.30;;;;;;;;;;4842776;29;20069;-75
2021/08/09 12:39:11;;;;;;;2.60;2.00;;;;;;;;;;4842840;29;20124;-71
2021/08/09 12:41:37;;;;;;;13.38;2.35;;;;;;;;;;4836174;29;20045;-73
2021/08/09 12:44:05;;;;;;;7.82;3.35;;;;;;;;;;4844987;29;20114;-73
2021/08/09 12:46:32;;;;;;;4.93;1.88;;;;;;;;;;4835324;29;20045;-74
2021/08/09 12:48:59;;;;;;;8.30;2.60;;;;;;;;;;4834139;29;20474;-72
2021/08/09 12:51:26;;;;;;;3.90;2.10;;;;;;;;;;4837191;29;20030;-73
2021/08/09 12:53:51;;;;;;;4.85;1.90;;;;;;;;;;4830356;29;20041;-71
2021/08/09 12:56:18;;;;;;;7.43;2.30;;;;;;;;;;4826431;29;20029;-73
2021/08/09 12:58:44;;;;;;;5.55;2.80;;;;;;;;;;4833955;29;20061;-72
2021/08/09 13:01:10;;;;;;;3.47;2.30;;;;;;;;;;4828810;29;20498;-72
2021/08/09 13:03:36;;;;;;;4.22;1.77;;;;;;;;;;4833012;29;20052;-74
2021/08/09 13:06:02;;;;;;;6.38;2.28;;;;;;;;;;4833487;29;20042;-73
2021/08/09 13:08:30;;;;;;;6.93;1.95;;;;;;;;;;4828803;29;20061;-73
2021/08/09 13:10:59;;;;;;;5.78;1.90;;;;;;;;;;4837011;29;20022;-73
2021/08/09 13:13:29;;;;;;;3.97;1.83;;;;;;;;;;4835207;29;20030;-71
2021/08/09 13:15:54;;;;;;;9.13;4.70;;;;;;;;;;4831764;29;20588;-72
2021/08/09 13:18:23;;;;;;;6.25;2.72;;;;;;;;;;4835335;29;20034;-73
2021/08/09 13:20:50;;;;;;;6.18;2.40;;;;;;;;;;4837957;29;20032;-74
2021/08/09 13:23:15;;;;;;;2.67;1.98;;;;;;;;;;4835097;29;20053;-72
2021/08/09 13:25:41;;;;;;;4.22;2.08;;;;;;;;;;4834163;29;20371;-73
2021/08/09 13:28:07;;;;;;;7.60;3.40;;;;;;;;;;4833581;29;20033;-75
2021/08/09 13:30:39;;;;;;;4.57;2.83;;;;;;;;;;4838564;29;20356;-72
2021/08/09 13:33:05;;;;;;;6.20;2.20;;;;;;;;;;4854818;29;20026;-73
2021/08/09 13:35:31;;;;;;;5.68;2.30;;;;;;;;;;4835623;29;20046;-74
2021/08/09 13:38:00;;;;;;;5.28;2.10;;;;;;;;;;4834832;29;20054;-73
2021/08/09 13:40:26;;;;;;;4.95;2.03;;;;;;;;;;4840219;29;20282;-74
2021/08/09 13:42:56;;;;;;;3.17;1.75;;;;;;;;;;4837701;29;20549;-75
2021/08/09 13:45:22;;;;;;;3.78;1.88;;;;;;;;;;4835476;29;20102;-73
2021/08/09 13:47:48;;;;;;;5.00;2.53;;;;;;;;;;4832806;29;20041;-74
2021/08/09 13:50:14;;;;;;;3.85;1.98;;;;;;;;;;4830536;29;20477;-74
2021/08/09 13:52:41;;;;;;;6.10;2.28;;;;;;;;;;4836959;29;20046;-74
2021/08/09 13:55:08;;;;;;;4.55;1.98;;;;;;;;;;4833426;29;20106;-72
2021/08/09 13:57:35;;;;;;;3.17;1.70;;;;;;;;;;4836904;29;20103;-72
2021/08/09 14:00:02;;;;;;;3.88;2.08;;;;;;;;;;4835059;29;20554;-74
2021/08/09 14:02:28;;;;;;;5.38;1.75;;;;;;;;;;4835784;29;20511;-73
2021/08/09 14:04:54;;;;;;;3.80;2.42;;;;;;;;;;4835625;29;20093;-73
2021/08/09 14:07:20;;;;;;;7.80;2.17;;;;;;;;;;4837033;29;20037;-73
2021/08/09 14:09:46;;;;;;;5.60;1.65;;;;;;;;;;4833252;29;20030;-73
2021/08/09 14:12:12;;;;;;;4.38;1.83;;;;;;;;;;4836637;29;20030;-75
2021/08/09 14:14:38;;;;;;;6.47;1.92;;;;;;;;;;4833563;29;20048;-74
2021/08/09 14:17:04;;;;;;;4.18;2.33;;;;;;;;;;4835448;29;20096;-74
2021/08/09 14:19:30;;;;;;;11.00;4.60;;;;;;;;;;4840333;29;20038;-73
2021/08/09 14:21:59;;;;;;;4.65;1.73;;;;;;;;;;4837356;29;20067;-73
2021/08/09 14:24:28;;;;;;;4.07;2.13;;;;;;;;;;4827796;29;20383;-73
2021/08/09 14:26:54;;;;;;;5.22;1.63;;;;;;;;;;4830725;29;20034;-75
2021/08/09 14:29:20;;;;;;;5.90;1.73;;;;;;;;;;4833831;29;20038;-72
2021/08/09 14:31:47;;;;;;;4.30;2.25;;;;;;;;;;4838419;29;20117;-72
2021/08/09 14:34:13;;;;;;;3.88;2.42;;;;;;;;;;4834669;29;20061;-74
2021/08/09 14:36:41;;;;;;;5.00;2.25;;;;;;;;;;4838362;29;20096;-73
2021/08/09 14:39:07;;;;;;;7.53;1.80;;;;;;;;;;4829931;29;20058;-72
2021/08/09 14:41:33;;;;;;;2.97;1.90;;;;;;;;;;4830092;29;20479;-73
2021/08/09 14:43:59;;;;;;;4.25;1.55;;;;;;;;;;4832174;29;20038;-74
2021/08/09 14:46:25;;;;;;;4.32;2.58;;;;;;;;;;4834250;29;20575;-72
2021/08/09 14:48:51;;;;;;;4.90;1.70;;;;;;;;;;4837649;29;20037;-73
2021/08/09 14:51:17;;;;;;;6.07;2.20;;;;;;;;;;4835023;29;20487;-74
2021/08/09 14:53:43;;;;;;;4.82;1.95;;;;;;;;;;4831430;29;20065;-72
2021/08/09 14:56:09;;;;;;;4.45;1.83;;;;;;;;;;4835317;29;20128;-72
2021/08/09 14:58:35;;;;;;;3.75;1.77;;;;;;;;;;4836870;29;20078;-72
2021/08/09 15:01:02;;;;;;;6.55;2.08;;;;;;;;;;4836799;29;20030;-74
2021/08/09 15:03:28;;;;;;;7.07;1.70;;;;;;;;;;4819578;29;20072;-73
2021/08/09 15:05:57;;;;;;;3.22;1.60;;;;;;;;;;4835764;29;20065;-72
2021/08/09 15:08:23;;;;;;;7.75;1.70;;;;;;;;;;4831675;29;20482;-73
2021/08/09 15:10:49;;;;;;;7.57;2.38;;;;;;;;;;4837919;29;20121;-74
2021/08/09 15:13:15;;;;;;;4.90;2.17;;;;;;;;;;4836410;29;20029;-73
2021/08/09 15:15:42;;;;;;;8.40;2.33;;;;;;;;;;4851020;29;20033;-73
2021/08/09 15:18:08;;;;;;;3.35;1.95;;;;;;;;;;4833470;29;20121;-72
2021/08/09 15:20:34;;;;;;;5.00;2.00;;;;;;;;;;4848812;29;20409;-74
2021/08/09 15:23:01;;;;;;;4.90;1.90;;;;;;;;;;4834057;29;20033;-72
2021/08/09 15:25:27;;;;;;;3.03;1.67;;;;;;;;;;4835797;29;20030;-73
2021/08/09 15:27:53;;;;;;;4.32;1.77;;;;;;;;;;4836601;29;20108;-72
2021/08/09 15:30:18;;;;;;;5.70;1.70;;;;;;;;;;4835190;29;20034;-72
2021/08/09 15:32:45;;;;;;;7.65;2.70;;;;;;;;;;4838885;29;20036;-71
2021/08/09 15:35:11;;;;;;;4.20;1.75;;;;;;;;;;4838658;29;20070;-72
2021/08/09 15:37:38;;;;;;;3.80;2.17;;;;;;;;;;4836705;29;20062;-73
2021/08/09 15:40:07;;;;;;;6.63;1.75;;;;;;;;;;4832146;29;20056;-72
2021/08/09 15:42:33;;;;;;;3.30;1.77;;;;;;;;;;4834154;29;20033;-71
2021/08/09 15:44:59;;;;;;;4.60;2.30;;;;;;;;;;4847290;29;20041;-72
2021/08/09 15:47:25;;;;;;;4.60;2.30;;;;;;;;;;4840226;29;20124;-72
2021/08/09 15:49:51;;;;;;;5.05;1.92;;;;;;;;;;4853293;29;20511;-72
2021/08/09 15:52:17;;;;;;;6.35;3.38;;;;;;;;;;4840425;29;20041;-71
2021/08/09 15:54:43;;;;;;;7.43;2.72;;;;;;;;;;4854720;29;20030;-73
2021/08/09 15:57:11;;;;;;;6.07;2.72;;;;;;;;;;4854322;29;20026;-72
2021/08/09 15:59:37;;;;;;;4.63;2.65;;;;;;;;;;4840594;29;20442;-72
2021/08/09 16:02:07;;;;;;;16.10;6.75;;;;;;;;;;4839702;29;20025;-74
2021/08/09 16:04:33;;;;;;;7.72;4.07;;;;;;;;;;4853741;29;20489;-74
2021/08/09 16:06:59;;;;;;;5.43;2.55;;;;;;;;;;4839895;29;20061;-71
2021/08/09 16:09:24;;;;;;;9.80;4.15;;;;;;;;;;4841003;29;20521;-73
2021/08/09 16:11:55;;;;;;;5.80;3.45;;;;;;;;;;4840973;29;20106;-74
2021/08/09 16:14:21;;;;;;;5.18;2.53;;;;;;;;;;4815979;29;20030;-72
2021/08/09 16:16:46;;;;;;;6.03;2.45;;;;;;;;;;4838789;29;20032;-71
2021/08/09 16:19:12;;;;;;;8.88;2.40;;;;;;;;;;4839551;29;20590;-72
2021/08/09 16:21:37;;;;;;;5.45;2.10;;;;;;;;;;4827391;29;20086;-73
2021/08/09 16:24:03;;;;;;;4.50;2.50;;;;;;;;;;4851085;29;20228;-73
2021/08/09 16:26:29;;;;;;;5.80;3.30;;;;;;;;;;4822701;29;20041;-72
2021/08/09 16:28:54;;;;;;;4.80;2.60;;;;;;;;;;4839251;29;20087;-73
2021/08/09 16:31:20;;;;;;;4.20;2.10;;;;;;;;;;4838254;29;20385;-73
2021/08/09 16:33:45;;;;;;;5.45;2.00;;;;;;;;;;4852525;29;20141;-72
2021/08/09 16:36:11;;;;;;;5.97;2.55;;;;;;;;;;4837468;29;20033;-72
2021/08/09 16:38:37;;;;;;;3.78;2.35;;;;;;;;;;4837874;29;20542;-72
2021/08/09 16:41:04;;;;;;;6.53;2.10;;;;;;;;;;4836857;29;20030;-72
2021/08/09 16:43:29;;;;;;;6.25;2.20;;;;;;;;;;4836747;29;20054;-71
2021/08/09 16:45:55;;;;;;;6.85;2.85;;;;;;;;;;4837956;29;20088;-73
2021/08/09 16:48:21;;;;;;;4.05;2.20;;;;;;;;;;4835753;29;20038;-74
2021/08/09 16:50:46;;;;;;;6.85;2.38;;;;;;;;;;4836841;29;20051;-72
2021/08/09 16:53:12;;;;;;;4.20;2.50;;;;;;;;;;4838006;29;20108;-72
2021/08/09 16:55:38;;;;;;;3.25;2.17;;;;;;;;;;4836821;29;20042;-73
2021/08/09 16:58:04;;;;;;;4.97;2.40;;;;;;;;;;4837019;29;20104;-73
2021/08/09 17:00:31;;;;;;;6.78;3.08;;;;;;;;;;4837905;29;20041;-73
2021/08/09 17:02:57;;;;;;;3.97;2.58;;;;;;;;;;4836965;29;20037;-71
2021/08/09 17:05:24;;;;;;;8.05;3.10;;;;;;;;;;4836960;29;20087;-73
2021/08/09 17:07:49;;;;;;;5.60;2.47;;;;;;;;;;4837752;29;20041;-72
2021/08/09 17:10:15;;;;;;;9.63;2.55;;;;;;;;;;4836575;29;20398;-74
2021/08/09 17:12:41;;;;;;;6.28;2.50;;;;;;;;;;4836792;29;20060;-74
2021/08/09 17:15:07;;;;;;;6.38;2.58;;;;;;;;;;4836666;29;20117;-73
2021/08/09 17:17:33;;;;;;;8.98;3.67;;;;;;;;;;4852233;29;20025;-73
2021/08/09 17:20:00;;;;;;;11.45;5.07;;;;;;;;;;4840627;29;20232;-74
2021/08/09 17:22:26;;;;;;;8.10;4.90;;;;;;;;;;4840429;29;20061;-73
2021/08/09 17:24:52;;;;;;;12.57;3.40;;;;;;;;;;4840136;29;20068;-73
2021/08/09 17:27:20;;;;;;;6.15;2.55;;;;;;;;;;4839663;29;20160;-74
2021/08/09 17:29:46;;;;;;;5.47;2.50;;;;;;;;;;4840158;29;20123;-73
2021/08/09 17:32:12;;;;;;;5.57;2.88;;;;;;;;;;4841283;29;20482;-74
2021/08/09 17:34:37;;;;;;;7.35;2.80;;;;;;;;;;4841524;29;20486;-75
2021/08/09 17:37:03;;;;;;;9.63;3.00;;;;;;;;;;4841476;29;20041;-73
2021/08/09 17:39:30;;;;;;;6.68;2.95;;;;;;;;;;4840152;29;20030;-73
2021/08/09 17:41:56;;;;;;;6.47;3.03;;;;;;;;;;4840621;29;20053;-74
2021/08/09 17:44:21;;;;;;;13.30;3.50;;;;;;;;;;4840194;29;20046;-72
2021/08/09 17:46:47;;;;;;;4.50;2.97;;;;;;;;;;4841350;29;20037;-73
2021/08/09 17:49:12;;;;;;;5.43;2.88;;;;;;;;;;4841045;29;20516;-73
2021/08/09 17:51:38;;;;;;;7.10;3.53;;;;;;;;;;4841061;29;20026;-74
2021/08/09 17:54:03;;;;;;;10.20;4.03;;;;;;;;;;4839787;29;20037;-73
2021/08/09 17:56:29;;;;;;;12.73;4.30;;;;;;;;;;4839836;29;20022;-74
2021/08/09 17:58:56;;;;;;;6.55;3.67;;;;;;;;;;4839899;29;20033;-74
2021/08/09 18:01:22;;;;;;;7.88;4.20;;;;;;;;;;4840680;29;20030;-73
2021/08/09 18:03:47;;;;;;;10.68;4.07;;;;;;;;;;4840796;29;20026;-73
2021/08/09 18:06:13;;;;;;;13.45;3.97;;;;;;;;;;4841128;29;20106;-73
2021/08/09 18:08:38;;;;;;;8.07;3.22;;;;;;;;;;4840687;29;20082;-76
2021/08/09 18:11:04;;;;;;;7.13;3.05;;;;;;;;;;4841038;29;20510;-73
2021/08/09 18:13:29;;;;;;;9.98;3.78;;;;;;;;;;4840731;29;20127;-73
2021/08/09 18:15:55;;;;;;;9.93;3.67;;;;;;;;;;4839550;29;20582;-74
2021/08/09 18:18:21;;;;;;;32.88;4.50;;;;;;;;;;4840870;29;20026;-73
2021/08/09 18:20:47;;;;;;;31.42;5.25;;;;;;;;;;4839223;29;20038;-73
2021/08/09 18:23:12;;;;;;;10.48;4.20;;;;;;;;;;4838960;29;20034;-73
2021/08/09 18:25:38;;;;;;;21.10;4.78;;;;;;;;;;4839409;29;20513;-73
2021/08/09 18:28:05;;;;;;;12.32;4.03;;;;;;;;;;4839059;29;20044;-74
2021/08/09 18:30:31;;;;;;;9.60;4.10;;;;;;;;;;4840222;29;20086;-73
2021/08/09 18:32:56;;;;;;;17.30;4.03;;;;;;;;;;4840342;29;20042;-73
2021/08/09 18:35:23;;;;;;;12.15;4.03;;;;;;;;;;4838830;29;20026;-74
2021/08/09 18:37:48;;;;;;;19.33;4.45;;;;;;;;;;4840593;29;20073;-74
2021/08/09 18:40:14;;;;;;;13.70;4.75;;;;;;;;;;4840458;29;20375;-73
2021/08/09 18:42:42;;;;;;;16.50;4.00;;;;;;;;;;4840525;29;20122;-73
2021/08/09 18:45:08;;;;;;;8.48;3.75;;;;;;;;;;4838715;29;20034;-72
2021/08/09 18:47:39;;;;;;;11.75;4.47;;;;;;;;;;4838755;29;20389;-73
2021/08/09 18:50:06;;;;;;;9.30;4.18;;;;;;;;;;4840025;29;20105;-72
2021/08/09 18:52:33;;;;;;;18.25;5.25;;;;;;;;;;4840572;29;20086;-73
2021/08/09 18:54:58;;;;;;;14.05;4.85;;;;;;;;;;4841413;29;20037;-73
2021/08/09 18:57:24;;;;;;;16.50;4.97;;;;;;;;;;4840154;29;20034;-73
2021/08/09 18:59:49;;;;;;;9.30;4.70;;;;;;;;;;4840105;29;20427;-73
2021/08/09 19:02:15;;;;;;;14.07;4.25;;;;;;;;;;4839901;29;20041;-72
2021/08/09 19:04:40;;;;;;;14.85;5.20;;;;;;;;;;4840211;29;20390;-73
2021/08/09 19:07:06;;;;;;;15.35;5.13;;;;;;;;;;4838428;29;20030;-73
2021/08/09 19:09:33;;;;;;;10.20;4.95;;;;;;;;;;4838810;29;20045;-73
2021/08/09 19:11:58;;;;;;;13.57;5.32;;;;;;;;;;4838561;29;20042;-73
2021/08/09 19:14:24;;;;;;;16.17;4.93;;;;;;;;;;4838436;29;20037;-73
2021/08/09 19:16:49;;;;;;;14.43;5.40;;;;;;;;;;4838350;29;20436;-74
2021/08/09 19:19:15;;;;;;;17.50;4.82;;;;;;;;;;4839678;29;20034;-72
2021/08/09 19:21:40;;;;;;;12.93;4.70;;;;;;;;;;4839844;29;20539;-74
2021/08/09 19:24:06;;;;;;;12.70;4.78;;;;;;;;;;4838215;29;20082;-73
2021/08/09 19:26:31;;;;;;;20.65;5.30;;;;;;;;;;4838489;29;20118;-73
2021/08/09 19:28:57;;;;;;;9.60;5.68;;;;;;;;;;4822977;29;20038;-73
2021/08/09 19:31:24;;;;;;;9.07;4.35;;;;;;;;;;4839737;29;20038;-74
2021/08/09 19:33:51;;;;;;;11.43;4.45;;;;;;;;;;4838298;29;20120;-73
2021/08/09 19:36:16;;;;;;;7.40;4.38;;;;;;;;;;4837803;29;20034;-72
2021/08/09 19:38:42;;;;;;;14.48;4.53;;;;;;;;;;4839628;29;20034;-73
2021/08/09 19:41:07;;;;;;;7.63;4.20;;;;;;;;;;4837415;29;20030;-74
2021/08/09 19:43:36;;;;;;;10.65;4.10;;;;;;;;;;4838406;29;20128;-73
2021/08/09 19:46:04;;;;;;;8.95;5.00;;;;;;;;;;4839551;29;20106;-73
2021/08/09 19:48:34;;;;;;;15.10;6.57;;;;;;;;;;4837688;29;20026;-73
2021/08/09 19:50:59;;;;;;;10.80;4.95;;;;;;;;;;4837811;29;20116;-74
2021/08/09 19:53:25;;;;;;;16.67;4.93;;;;;;;;;;4839050;29;20125;-73
2021/08/09 19:55:50;;;;;;;11.82;5.75;;;;;;;;;;4837678;29;20029;-73
2021/08/09 19:58:15;;;;;;;13.30;5.43;;;;;;;;;;4838790;29;20029;-73
2021/08/09 20:00:41;;;;;;;14.63;5.10;;;;;;;;;;4838944;29;20032;-73
2021/08/09 20:03:07;;;;;;;11.55;5.38;;;;;;;;;;4839013;29;20386;-74
2021/08/09 20:05:32;;;;;;;11.23;4.82;;;;;;;;;;4838845;29;20034;-74
2021/08/09 20:07:58;;;;;;;8.02;4.38;;;;;;;;;;4837735;29;20123;-73
2021/08/09 20:10:23;;;;;;;9.63;4.82;;;;;;;;;;4837477;29;20034;-73
2021/08/09 20:12:49;;;;;;;68.20;8.70;;;;;;;;;;4839023;29;20056;-73
2021/08/09 20:15:14;;;;;;;19.50;5.78;;;;;;;;;;4836990;29;20036;-73
2021/08/09 20:17:40;;;;;;;14.13;6.22;;;;;;;;;;4838709;29;20037;-73
2021/08/09 20:20:10;;;;;;;14.10;5.43;;;;;;;;;;4839012;29;20462;-74
2021/08/09 20:22:35;;;;;;;30.80;6.25;;;;;;;;;;4837778;29;20513;-72
2021/08/09 20:25:02;;;;;;;13.38;4.60;;;;;;;;;;4838755;29;20033;-73
2021/08/09 20:27:28;;;;;;;13.88;5.53;;;;;;;;;;4837401;29;20439;-72
2021/08/09 20:29:53;;;;;;;12.45;6.15;;;;;;;;;;4852796;29;20167;-72
2021/08/09 20:32:19;;;;;;;14.88;5.88;;;;;;;;;;4837568;29;20045;-72
2021/08/09 20:34:44;;;;;;;11.23;6.20;;;;;;;;;;4837506;29;20113;-72
2021/08/09 20:37:10;;;;;;;18.42;6.13;;;;;;;;;;4838181;29;20061;-73
2021/08/09 20:39:36;;;;;;;18.23;6.82;;;;;;;;;;4837191;29;20100;-73
2021/08/09 20:42:02;;;;;;;21.17;6.45;;;;;;;;;;4838347;29;20030;-72
2021/08/09 20:44:28;;;;;;;13.88;5.85;;;;;;;;;;4837147;29;20041;-73
2021/08/09 20:46:53;;;;;;;20.27;7.07;;;;;;;;;;4837437;29;20029;-73
2021/08/09 20:49:19;;;;;;;12.57;5.75;;;;;;;;;;4838536;29;20033;-72
2021/08/09 20:51:44;;;;;;;11.35;5.70;;;;;;;;;;4837472;29;20041;-73
2021/08/09 20:54:10;;;;;;;18.90;6.78;;;;;;;;;;4840497;29;20037;-74
2021/08/09 20:56:35;;;;;;;13.82;7.22;;;;;;;;;;4840828;29;20026;-73
2021/08/09 20:59:01;;;;;;;17.38;6.57;;;;;;;;;;4841047;29;20509;-75
2021/08/09 21:01:27;;;;;;;23.65;6.85;;;;;;;;;;4842246;29;20098;-74
2021/08/09 21:03:53;;;;;;;12.90;5.53;;;;;;;;;;4840976;29;20038;-74
2021/08/09 21:06:18;;;;;;;13.45;6.22;;;;;;;;;;4841899;29;20110;-73
2021/08/09 21:08:44;;;;;;;20.45;6.53;;;;;;;;;;4842318;29;20060;-73
2021/08/09 21:11:10;;;;;;;18.70;5.55;;;;;;;;;;4840840;29;20030;-74
2021/08/09 21:13:37;;;;;;;20.70;7.53;;;;;;;;;;4842084;29;20368;-73
2021/08/09 21:16:03;;;;;;;16.77;6.80;;;;;;;;;;4841899;29;20416;-73
2021/08/09 21:18:29;;;;;;;12.70;6.05;;;;;;;;;;4840462;29;20030;-73
2021/08/09 21:20:54;;;;;;;14.60;5.78;;;;;;;;;;4841805;29;20030;-73
2021/08/09 21:23:20;;;;;;;17.52;6.13;;;;;;;;;;4841848;29;20372;-73
2021/08/09 21:25:45;;;;;;;15.43;6.97;;;;;;;;;;4841008;29;20129;-73
2021/08/09 21:28:11;;;;;;;13.98;6.55;;;;;;;;;;4842646;29;20044;-72
2021/08/09 21:30:36;;;;;;;14.95;6.18;;;;;;;;;;4842574;29;20438;-72
2021/08/09 21:33:05;;;;;;;18.50;6.80;;;;;;;;;;4840831;29;20038;-73
2021/08/09 21:35:31;;;;;;;13.25;7.10;;;;;;;;;;4841902;29;20029;-75
2021/08/09 21:37:57;;;;;;;11.65;6.80;;;;;;;;;;4841217;29;20602;-77
2021/08/09 21:40:22;;;;;;;12.85;6.60;;;;;;;;;;4842564;29;20033;-76
2021/08/09 21:42:48;;;;;;;18.27;7.30;;;;;;;;;;4844195;29;20034;-75
2021/08/09 21:45:14;;;;;;;11.57;6.68;;;;;;;;;;4841101;29;20379;-73
2021/08/09 21:47:39;;;;;;;16.92;7.18;;;;;;;;;;4825590;29;20033;-73
2021/08/09 21:50:06;;;;;;;12.77;6.85;;;;;;;;;;4840632;29;20026;-73
2021/08/09 21:52:32;;;;;;;9.07;5.95;;;;;;;;;;4841592;29;20100;-73
2021/08/09 21:54:58;;;;;;;14.35;8.25;;;;;;;;;;4840338;29;20125;-73
2021/08/09 21:57:23;;;;;;;14.93;6.35;;;;;;;;;;4841269;29;20387;-73
2021/08/09 21:59:49;;;;;;;11.18;6.13;;;;;;;;;;4841448;29;20086;-73
2021/08/09 22:02:15;;;;;;;12.23;6.85;;;;;;;;;;4841893;29;20026;-73
2021/08/09 22:04:40;;;;;;;16.13;9.85;;;;;;;;;;4839581;29;20494;-74
2021/08/09 22:07:05;;;;;;;11.32;6.03;;;;;;;;;;4840340;29;20486;-73
2021/08/09 22:09:31;;;;;;;14.90;7.03;;;;;;;;;;4840067;29;20030;-73
2021/08/09 22:11:56;;;;;;;11.30;6.03;;;;;;;;;;4840029;29;20578;-73
2021/08/09 22:14:22;;;;;;;11.00;7.07;;;;;;;;;;4841268;29;20672;-73
2021/08/09 22:16:47;;;;;;;13.20;6.25;;;;;;;;;;4839738;29;20165;-73
2021/08/09 22:19:13;;;;;;;14.60;6.80;;;;;;;;;;4855018;29;20029;-73